sensor_id;sensor_type;location;lat;lon;timestamp;pressure;altitude;pressure_sealevel;temperature;humidity
29433;BME280;16405;53.964;13.448;2023-12-22T00:00:04;97572.03;;;3.88;71.43
29433;BME280;16405;53.964;13.448;2023-12-22T00:02:56;97564.63;;;3.95;70.96
29433;BME280;16405;53.964;13.448;2023-12-22T00:05:25;97588.50;;;3.76;71.46
29433;BME280;16405;53.964;13.448;2023-12-22T00:07:52;97553.53;;;3.67;70.87
29433;BME280;16405;53.964;13.448;2023-12-22T00:10:17;97597.56;;;3.70;70.64
29433;BME280;16405;53.964;13.448;2023-12-22T00:12:55;97578.94;;;3.63;71.96
29433;BME280;16405;53.964;13.448;2023-12-22T00:16:08;97586.44;;;3.42;72.01
29433;BME280;16405;53.964;13.448;2023-12-22T00:18:47;97583.84;;;3.42;71.92
29433;BME280;16405;53.964;13.448;2023-12-22T00:21:13;97598.06;;;3.49;71.84
29433;BME280;16405;53.964;13.448;2023-12-22T00:23:48;97605.13;;;3.35;71.86
29433;BME280;16405;53.964;13.448;2023-12-22T00:26:14;97599.13;;;3.34;71.88
29433;BME280;16405;53.964;13.448;2023-12-22T00:28:40;97570.91;;;3.28;71.68
29433;BME280;16405;53.964;13.448;2023-12-22T00:31:16;97606.81;;;3.23;72.41
29433;BME280;16405;53.964;13.448;2023-12-22T00:33:45;97614.13;;;3.31;71.10
29433;BME280;16405;53.964;13.448;2023-12-22T00:36:24;97627.22;;;3.29;71.92
29433;BME280;16405;53.964;13.448;2023-12-22T00:39:00;97620.13;;;3.31;71.54
29433;BME280;16405;53.964;13.448;2023-12-22T00:41:25;97650.59;;;3.29;71.83
29433;BME280;16405;53.964;13.448;2023-12-22T00:43:53;97623.53;;;3.19;71.94
29433;BME280;16405;53.964;13.448;2023-12-22T00:46:44;97630.50;;;3.18;71.46
29433;BME280;16405;53.964;13.448;2023-12-22T00:49:12;97632.28;;;3.18;71.81
29433;BME280;16405;53.964;13.448;2023-12-22T00:51:46;97644.00;;;3.11;71.61
29433;BME280;16405;53.964;13.448;2023-12-22T00:54:14;97652.34;;;3.16;71.39
29433;BME280;16405;53.964;13.448;2023-12-22T00:56:41;97653.28;;;3.15;71.41
29433;BME280;16405;53.964;13.448;2023-12-22T00:59:18;97662.94;;;3.13;71.65
29433;BME280;16405;53.964;13.448;2023-12-22T01:01:43;97670.22;;;3.07;71.03
29433;BME280;16405;53.964;13.448;2023-12-22T01:04:10;97687.28;;;3.12;71.01
29433;BME280;16405;53.964;13.448;2023-12-22T01:06:40;97676.59;;;3.16;70.54
29433;BME280;16405;53.964;13.448;2023-12-22T01:09:06;97689.19;;;3.22;70.66
29433;BME280;16405;53.964;13.448;2023-12-22T01:11:32;97679.91;;;3.18;70.80
29433;BME280;16405;53.964;13.448;2023-12-22T01:13:58;97685.63;;;3.23;70.64
29433;BME280;16405;53.964;13.448;2023-12-22T01:16:24;97697.91;;;3.21;71.34
29433;BME280;16405;53.964;13.448;2023-12-22T01:18:55;97681.69;;;3.18;71.65
29433;BME280;16405;53.964;13.448;2023-12-22T01:21:21;97707.38;;;3.22;71.52
29433;BME280;16405;53.964;13.448;2023-12-22T01:23:46;97706.13;;;3.28;71.42
29433;BME280;16405;53.964;13.448;2023-12-22T01:26:12;97701.63;;;3.17;71.75
29433;BME280;16405;53.964;13.448;2023-12-22T01:28:38;97693.22;;;3.14;72.00
29433;BME280;16405;53.964;13.448;2023-12-22T01:31:04;97713.88;;;3.02;71.48
29433;BME280;16405;53.964;13.448;2023-12-22T01:33:38;97700.22;;;2.99;71.58
29433;BME280;16405;53.964;13.448;2023-12-22T01:36:04;97724.22;;;2.90;70.86
29433;BME280;16405;53.964;13.448;2023-12-22T01:38:30;97748.44;;;2.76;71.11
29433;BME280;16405;53.964;13.448;2023-12-22T01:40:56;97719.34;;;2.71;70.58
29433;BME280;16405;53.964;13.448;2023-12-22T01:43:22;97736.34;;;2.62;71.11
29433;BME280;16405;53.964;13.448;2023-12-22T01:45:57;97718.44;;;2.57;71.19
29433;BME280;16405;53.964;13.448;2023-12-22T01:48:25;97717.50;;;2.58;70.82
29433;BME280;16405;53.964;13.448;2023-12-22T01:50:55;97721.78;;;2.59;70.88
29433;BME280;16405;53.964;13.448;2023-12-22T01:53:22;97725.13;;;2.47;72.10
29433;BME280;16405;53.964;13.448;2023-12-22T01:55:50;97733.28;;;2.55;72.47
29433;BME280;16405;53.964;13.448;2023-12-22T01:58:18;97724.00;;;2.51;72.78
29433;BME280;16405;53.964;13.448;2023-12-22T02:00:45;97694.31;;;2.55;72.19
29433;BME280;16405;53.964;13.448;2023-12-22T02:03:15;97717.03;;;2.66;71.95
29433;BME280;16405;53.964;13.448;2023-12-22T02:05:43;97713.69;;;2.64;71.94
29433;BME280;16405;53.964;13.448;2023-12-22T02:08:17;97714.53;;;2.64;72.05
29433;BME280;16405;53.964;13.448;2023-12-22T02:10:44;97722.59;;;2.60;71.99
29433;BME280;16405;53.964;13.448;2023-12-22T02:13:11;97715.56;;;2.62;71.94
29433;BME280;16405;53.964;13.448;2023-12-22T02:15:37;97743.63;;;2.70;71.08
29433;BME280;16405;53.964;13.448;2023-12-22T02:18:12;97745.13;;;2.74;70.89
29433;BME280;16405;53.964;13.448;2023-12-22T02:20:40;97726.56;;;2.65;70.92
29433;BME280;16405;53.964;13.448;2023-12-22T02:23:13;97738.63;;;2.66;70.72
29433;BME280;16405;53.964;13.448;2023-12-22T02:25:39;97752.75;;;2.77;71.08
29433;BME280;16405;53.964;13.448;2023-12-22T02:28:18;97740.66;;;2.76;70.98
29433;BME280;16405;53.964;13.448;2023-12-22T02:31:02;97741.59;;;2.75;71.24
29433;BME280;16405;53.964;13.448;2023-12-22T02:33:30;97748.00;;;2.69;71.06
29433;BME280;16405;53.964;13.448;2023-12-22T02:36:05;97743.47;;;2.73;71.19
29433;BME280;16405;53.964;13.448;2023-12-22T02:38:33;97731.03;;;2.63;72.03
29433;BME280;16405;53.964;13.448;2023-12-22T02:41:03;97750.69;;;2.67;71.15
29433;BME280;16405;53.964;13.448;2023-12-22T02:43:29;97749.78;;;2.69;71.18
29433;BME280;16405;53.964;13.448;2023-12-22T02:45:55;97728.25;;;2.66;71.06
29433;BME280;16405;53.964;13.448;2023-12-22T02:48:21;97744.66;;;2.67;71.01
29433;BME280;16405;53.964;13.448;2023-12-22T02:50:47;97749.03;;;2.66;71.55
29433;BME280;16405;53.964;13.448;2023-12-22T02:53:13;97732.78;;;2.63;71.71
29433;BME280;16405;53.964;13.448;2023-12-22T02:55:38;97754.22;;;2.66;71.11
29433;BME280;16405;53.964;13.448;2023-12-22T02:58:12;97748.50;;;2.61;70.11
29433;BME280;16405;53.964;13.448;2023-12-22T03:00:37;97726.84;;;2.61;70.39
29433;BME280;16405;53.964;13.448;2023-12-22T03:03:04;97745.16;;;2.59;69.99
29433;BME280;16405;53.964;13.448;2023-12-22T03:05:29;97747.94;;;2.56;70.26
29433;BME280;16405;53.964;13.448;2023-12-22T03:08:00;97754.41;;;2.63;70.27
29433;BME280;16405;53.964;13.448;2023-12-22T03:10:26;97759.81;;;2.60;70.49
29433;BME280;16405;53.964;13.448;2023-12-22T03:12:52;97756.16;;;2.63;70.88
29433;BME280;16405;53.964;13.448;2023-12-22T03:15:17;97753.50;;;2.64;70.09
29433;BME280;16405;53.964;13.448;2023-12-22T03:17:43;97745.41;;;2.69;70.17
29433;BME280;16405;53.964;13.448;2023-12-22T03:20:09;97743.47;;;2.73;69.50
29433;BME280;16405;53.964;13.448;2023-12-22T03:22:40;97754.03;;;2.70;69.16
29433;BME280;16405;53.964;13.448;2023-12-22T03:25:06;97744.94;;;2.77;69.30
29433;BME280;16405;53.964;13.448;2023-12-22T03:27:32;97748.53;;;2.74;68.70
29433;BME280;16405;53.964;13.448;2023-12-22T03:29:58;97749.72;;;2.83;68.99
29433;BME280;16405;53.964;13.448;2023-12-22T03:32:24;97760.41;;;2.78;68.69
29433;BME280;16405;53.964;13.448;2023-12-22T03:34:49;97752.25;;;2.84;68.58
29433;BME280;16405;53.964;13.448;2023-12-22T03:37:24;97745.00;;;2.90;68.47
29433;BME280;16405;53.964;13.448;2023-12-22T03:39:50;97748.59;;;2.87;68.57
29433;BME280;16405;53.964;13.448;2023-12-22T03:42:16;97741.31;;;2.79;68.76
29433;BME280;16405;53.964;13.448;2023-12-22T03:44:41;97736.94;;;2.80;68.98
29433;BME280;16405;53.964;13.448;2023-12-22T03:47:15;97739.47;;;2.81;69.20
29433;BME280;16405;53.964;13.448;2023-12-22T03:49:41;97745.56;;;2.80;69.19
29433;BME280;16405;53.964;13.448;2023-12-22T03:52:07;97747.31;;;2.94;68.82
29433;BME280;16405;53.964;13.448;2023-12-22T03:54:32;97760.84;;;2.99;68.76
29433;BME280;16405;53.964;13.448;2023-12-22T03:56:58;97754.53;;;3.03;68.94
29433;BME280;16405;53.964;13.448;2023-12-22T03:59:33;97738.94;;;3.03;68.09
29433;BME280;16405;53.964;13.448;2023-12-22T04:01:59;97749.56;;;3.13;67.77
29433;BME280;16405;53.964;13.448;2023-12-22T04:04:29;97733.13;;;3.13;68.18
29433;BME280;16405;53.964;13.448;2023-12-22T04:06:57;97749.16;;;3.19;67.74
29433;BME280;16405;53.964;13.448;2023-12-22T04:09:23;97756.34;;;3.16;68.61
29433;BME280;16405;53.964;13.448;2023-12-22T04:11:48;97778.03;;;3.29;67.54
29433;BME280;16405;53.964;13.448;2023-12-22T04:14:14;97757.97;;;3.31;68.09
29433;BME280;16405;53.964;13.448;2023-12-22T04:16:40;97742.38;;;3.31;68.80
29433;BME280;16405;53.964;13.448;2023-12-22T04:19:11;97738.97;;;3.16;68.09
29433;BME280;16405;53.964;13.448;2023-12-22T04:21:37;97764.63;;;3.08;67.17
29433;BME280;16405;53.964;13.448;2023-12-22T04:24:03;97770.31;;;3.00;66.37
29433;BME280;16405;53.964;13.448;2023-12-22T04:26:30;97790.09;;;2.88;65.00
29433;BME280;16405;53.964;13.448;2023-12-22T04:28:55;97754.31;;;2.79;64.26
29433;BME280;16405;53.964;13.448;2023-12-22T04:31:21;97784.75;;;2.77;64.64
29433;BME280;16405;53.964;13.448;2023-12-22T04:33:47;97784.00;;;2.61;65.26
29433;BME280;16405;53.964;13.448;2023-12-22T04:36:21;97774.56;;;2.60;64.94
29433;BME280;16405;53.964;13.448;2023-12-22T04:38:47;97796.34;;;2.72;63.93
29433;BME280;16405;53.964;13.448;2023-12-22T04:41:12;97775.09;;;2.79;63.36
29433;BME280;16405;53.964;13.448;2023-12-22T04:43:46;97805.69;;;2.74;63.61
29433;BME280;16405;53.964;13.448;2023-12-22T04:46:11;97794.69;;;2.71;64.29
29433;BME280;16405;53.964;13.448;2023-12-22T04:48:37;97781.25;;;2.64;64.76
29433;BME280;16405;53.964;13.448;2023-12-22T04:51:03;97796.16;;;2.60;65.17
29433;BME280;16405;53.964;13.448;2023-12-22T04:53:29;97786.81;;;2.58;65.96
29433;BME280;16405;53.964;13.448;2023-12-22T04:55:55;97797.84;;;2.61;66.29
29433;BME280;16405;53.964;13.448;2023-12-22T04:58:23;97770.72;;;2.65;66.95
29433;BME280;16405;53.964;13.448;2023-12-22T05:00:49;97758.16;;;2.59;67.09
29433;BME280;16405;53.964;13.448;2023-12-22T05:03:15;97762.41;;;2.60;67.65
29433;BME280;16405;53.964;13.448;2023-12-22T05:05:43;97745.16;;;2.59;68.06
29433;BME280;16405;53.964;13.448;2023-12-22T05:08:09;97753.41;;;2.66;67.77
29433;BME280;16405;53.964;13.448;2023-12-22T05:10:42;97755.25;;;2.64;68.06
29433;BME280;16405;53.964;13.448;2023-12-22T05:13:08;97749.22;;;2.63;68.47
29433;BME280;16405;53.964;13.448;2023-12-22T05:15:34;97752.38;;;2.69;68.34
29433;BME280;16405;53.964;13.448;2023-12-22T05:18:00;97732.13;;;2.74;69.01
29433;BME280;16405;53.964;13.448;2023-12-22T05:20:25;97759.59;;;2.78;68.68
29433;BME280;16405;53.964;13.448;2023-12-22T05:22:56;97766.06;;;2.85;69.21
29433;BME280;16405;53.964;13.448;2023-12-22T05:25:22;97748.81;;;2.84;69.54
29433;BME280;16405;53.964;13.448;2023-12-22T05:27:48;97727.81;;;2.87;70.04
29433;BME280;16405;53.964;13.448;2023-12-22T05:30:14;97718.66;;;2.81;70.92
29433;BME280;16405;53.964;13.448;2023-12-22T05:32:40;97729.00;;;2.69;71.01
29433;BME280;16405;53.964;13.448;2023-12-22T05:35:09;97721.84;;;2.72;71.72
29433;BME280;16405;53.964;13.448;2023-12-22T05:37:35;97709.13;;;2.67;72.32
29433;BME280;16405;53.964;13.448;2023-12-22T05:40:02;97720.69;;;2.76;72.22
29433;BME280;16405;53.964;13.448;2023-12-22T05:42:28;97717.38;;;2.74;71.86
29433;BME280;16405;53.964;13.448;2023-12-22T05:44:54;97723.13;;;2.79;71.69
29433;BME280;16405;53.964;13.448;2023-12-22T05:47:19;97719.56;;;2.80;71.62
29433;BME280;16405;53.964;13.448;2023-12-22T05:49:45;97710.56;;;2.86;71.50
29433;BME280;16405;53.964;13.448;2023-12-22T05:52:15;97716.69;;;2.85;72.03
29433;BME280;16405;53.964;13.448;2023-12-22T05:54:41;97714.66;;;2.90;72.36
29433;BME280;16405;53.964;13.448;2023-12-22T05:57:07;97718.00;;;2.78;73.29
29433;BME280;16405;53.964;13.448;2023-12-22T05:59:33;97714.69;;;2.76;73.46
29433;BME280;16405;53.964;13.448;2023-12-22T06:02:00;97719.81;;;2.63;73.95
29433;BME280;16405;53.964;13.448;2023-12-22T06:04:28;97716.16;;;2.65;74.15
29433;BME280;16405;53.964;13.448;2023-12-22T06:06:59;97715.44;;;2.63;74.33
29433;BME280;16405;53.964;13.448;2023-12-22T06:09:24;97740.50;;;2.64;75.08
29433;BME280;16405;53.964;13.448;2023-12-22T06:11:51;97725.13;;;2.61;74.81
29433;BME280;16405;53.964;13.448;2023-12-22T06:14:17;97733.63;;;2.63;74.72
29433;BME280;16405;53.964;13.448;2023-12-22T06:16:42;97739.00;;;2.75;75.01
29433;BME280;16405;53.964;13.448;2023-12-22T06:19:16;97734.72;;;2.74;74.81
29433;BME280;16405;53.964;13.448;2023-12-22T06:21:42;97734.72;;;2.74;75.32
29433;BME280;16405;53.964;13.448;2023-12-22T06:24:08;97755.97;;;2.80;75.82
29433;BME280;16405;53.964;13.448;2023-12-22T06:26:42;97740.50;;;2.50;77.20
29433;BME280;16405;53.964;13.448;2023-12-22T06:29:08;97732.53;;;2.39;78.69
29433;BME280;16405;53.964;13.448;2023-12-22T06:31:35;97720.22;;;2.42;79.26
29433;BME280;16405;53.964;13.448;2023-12-22T06:34:00;97731.06;;;2.49;78.57
29433;BME280;16405;53.964;13.448;2023-12-22T06:36:35;97727.53;;;2.50;78.17
29433;BME280;16405;53.964;13.448;2023-12-22T06:39:01;97721.28;;;2.53;78.08
29433;BME280;16405;53.964;13.448;2023-12-22T06:41:29;97733.16;;;2.57;78.15
29433;BME280;16405;53.964;13.448;2023-12-22T06:43:59;97728.25;;;2.52;78.07
29433;BME280;16405;53.964;13.448;2023-12-22T06:46:28;97740.13;;;2.56;77.75
29433;BME280;16405;53.964;13.448;2023-12-22T06:48:57;97749.94;;;2.65;77.70
29433;BME280;16405;53.964;13.448;2023-12-22T06:51:29;97743.75;;;2.68;77.83
29433;BME280;16405;53.964;13.448;2023-12-22T06:53:56;97751.25;;;2.73;76.71
29433;BME280;16405;53.964;13.448;2023-12-22T06:56:25;97749.94;;;2.80;76.28
29433;BME280;16405;53.964;13.448;2023-12-22T06:58:53;97763.28;;;2.88;75.68
29433;BME280;16405;53.964;13.448;2023-12-22T07:01:34;97764.31;;;2.85;76.21
29433;BME280;16405;53.964;13.448;2023-12-22T07:04:04;97760.59;;;2.90;75.47
29433;BME280;16405;53.964;13.448;2023-12-22T07:06:32;97780.53;;;2.89;75.35
29433;BME280;16405;53.964;13.448;2023-12-22T07:11:51;97778.69;;;2.91;74.42
29433;BME280;16405;53.964;13.448;2023-12-22T07:14:20;97790.09;;;2.88;74.54
29433;BME280;16405;53.964;13.448;2023-12-22T07:16:49;97795.97;;;2.92;74.38
29433;BME280;16405;53.964;13.448;2023-12-22T07:19:14;97789.00;;;2.93;74.09
29433;BME280;16405;53.964;13.448;2023-12-22T07:21:41;97798.34;;;2.95;75.01
29433;BME280;16405;53.964;13.448;2023-12-22T07:24:07;97804.38;;;2.96;74.93
29433;BME280;16405;53.964;13.448;2023-12-22T07:26:33;97776.81;;;2.93;75.07
29433;BME280;16405;53.964;13.448;2023-12-22T07:28:59;97803.56;;;2.95;74.67
29433;BME280;16405;53.964;13.448;2023-12-22T07:31:27;97792.31;;;2.95;73.84
29433;BME280;16405;53.964;13.448;2023-12-22T07:33:53;97764.28;;;3.00;73.50
29433;BME280;16405;53.964;13.448;2023-12-22T07:36:19;97817.13;;;3.00;73.54
29433;BME280;16405;53.964;13.448;2023-12-22T07:38:46;97820.53;;;3.01;72.96
29433;BME280;16405;53.964;13.448;2023-12-22T07:41:12;97754.81;;;2.99;73.15
29433;BME280;16405;53.964;13.448;2023-12-22T07:43:43;97824.06;;;3.00;73.35
29433;BME280;16405;53.964;13.448;2023-12-22T07:46:16;97807.63;;;2.99;74.02
29433;BME280;16405;53.964;13.448;2023-12-22T07:48:42;97809.31;;;3.00;74.23
29433;BME280;16405;53.964;13.448;2023-12-22T07:51:11;97812.09;;;2.97;75.15
29433;BME280;16405;53.964;13.448;2023-12-22T07:53:37;97805.41;;;2.93;75.34
29433;BME280;16405;53.964;13.448;2023-12-22T07:56:03;97809.78;;;2.93;75.82
29433;BME280;16405;53.964;13.448;2023-12-22T07:58:31;97799.31;;;2.94;76.27
29433;BME280;16405;53.964;13.448;2023-12-22T08:01:07;97812.19;;;2.96;76.17
29433;BME280;16405;53.964;13.448;2023-12-22T08:03:33;97838.09;;;2.97;76.26
29433;BME280;16405;53.964;13.448;2023-12-22T08:05:59;97803.47;;;2.97;75.98
29433;BME280;16405;53.964;13.448;2023-12-22T08:08:25;97731.22;;;3.02;75.33
29433;BME280;16405;53.964;13.448;2023-12-22T08:11:00;97814.09;;;3.06;74.97
29433;BME280;16405;53.964;13.448;2023-12-22T08:13:26;97821.28;;;3.03;74.59
29433;BME280;16405;53.964;13.448;2023-12-22T08:15:52;97797.16;;;3.01;74.32
29433;BME280;16405;53.964;13.448;2023-12-22T08:18:26;97830.75;;;3.04;74.14
29433;BME280;16405;53.964;13.448;2023-12-22T08:20:52;97804.13;;;3.00;74.35
29433;BME280;16405;53.964;13.448;2023-12-22T08:23:18;97858.34;;;2.92;74.89
29433;BME280;16405;53.964;13.448;2023-12-22T08:25:43;97821.38;;;2.87;75.47
29433;BME280;16405;53.964;13.448;2023-12-22T08:28:09;97843.84;;;2.88;75.91
29433;BME280;16405;53.964;13.448;2023-12-22T08:30:39;97853.03;;;2.94;75.44
29433;BME280;16405;53.964;13.448;2023-12-22T08:33:05;97869.47;;;2.94;75.01
29433;BME280;16405;53.964;13.448;2023-12-22T08:35:31;97846.63;;;2.99;75.02
29433;BME280;16405;53.964;13.448;2023-12-22T08:37:56;97882.19;;;2.99;75.18
29433;BME280;16405;53.964;13.448;2023-12-22T08:40:23;97876.03;;;3.00;75.39
29433;BME280;16405;53.964;13.448;2023-12-22T08:42:59;97879.84;;;3.08;75.62
29433;BME280;16405;53.964;13.448;2023-12-22T08:45:27;97888.50;;;3.09;75.80
29433;BME280;16405;53.964;13.448;2023-12-22T08:47:59;97890.69;;;3.15;74.68
29433;BME280;16405;53.964;13.448;2023-12-22T08:50:25;97891.94;;;3.10;75.57
29433;BME280;16405;53.964;13.448;2023-12-22T08:52:52;97891.28;;;3.06;75.99
29433;BME280;16405;53.964;13.448;2023-12-22T08:55:17;97891.28;;;3.06;75.65
29433;BME280;16405;53.964;13.448;2023-12-22T08:57:44;97895.44;;;3.08;75.66
29433;BME280;16405;53.964;13.448;2023-12-22T09:00:10;97906.03;;;3.20;74.95
29433;BME280;16405;53.964;13.448;2023-12-22T09:02:42;97881.91;;;3.18;75.56
29433;BME280;16405;53.964;13.448;2023-12-22T09:05:08;97907.91;;;3.18;75.33
29433;BME280;16405;53.964;13.448;2023-12-22T09:07:34;97923.22;;;3.22;75.00
29433;BME280;16405;53.964;13.448;2023-12-22T09:10:00;97925.16;;;3.19;74.42
29433;BME280;16405;53.964;13.448;2023-12-22T09:12:33;97941.31;;;3.24;74.56
29433;BME280;16405;53.964;13.448;2023-12-22T09:14:59;97921.81;;;3.31;74.24
29433;BME280;16405;53.964;13.448;2023-12-22T09:17:27;97951.16;;;3.33;74.43
29433;BME280;16405;53.964;13.448;2023-12-22T09:19:57;97946.34;;;3.27;73.97
29433;BME280;16405;53.964;13.448;2023-12-22T09:22:25;97963.88;;;3.23;74.03
29433;BME280;16405;53.964;13.448;2023-12-22T09:24:51;97966.31;;;3.26;73.28
29433;BME280;16405;53.964;13.448;2023-12-22T09:27:17;97988.84;;;3.26;73.60
29433;BME280;16405;53.964;13.448;2023-12-22T09:29:43;97954.44;;;3.22;73.00
29433;BME280;16405;53.964;13.448;2023-12-22T09:32:15;97990.09;;;3.20;73.57
29433;BME280;16405;53.964;13.448;2023-12-22T09:34:43;97998.91;;;3.18;73.74
29433;BME280;16405;53.964;13.448;2023-12-22T09:37:12;97999.75;;;3.18;73.54
29433;BME280;16405;53.964;13.448;2023-12-22T09:39:43;98001.50;;;3.18;73.57
29433;BME280;16405;53.964;13.448;2023-12-22T09:42:12;97998.25;;;3.14;73.88
29433;BME280;16405;53.964;13.448;2023-12-22T09:44:39;98005.22;;;3.14;73.01
29433;BME280;16405;53.964;13.448;2023-12-22T09:47:17;97969.84;;;3.11;72.98
29433;BME280;16405;53.964;13.448;2023-12-22T09:49:45;98025.44;;;3.08;73.68
29433;BME280;16405;53.964;13.448;2023-12-22T09:52:15;98012.44;;;3.08;73.90
29433;BME280;16405;53.964;13.448;2023-12-22T09:54:42;98042.72;;;3.10;73.47
29433;BME280;16405;53.964;13.448;2023-12-22T09:57:09;98040.28;;;3.06;73.44
29433;BME280;16405;53.964;13.448;2023-12-22T09:59:35;98059.44;;;3.05;73.52
29433;BME280;16405;53.964;13.448;2023-12-22T10:02:06;98064.72;;;3.04;73.86
29433;BME280;16405;53.964;13.448;2023-12-22T10:04:36;98044.84;;;3.03;73.77
29433;BME280;16405;53.964;13.448;2023-12-22T10:07:05;98056.84;;;3.05;73.80
29433;BME280;16405;53.964;13.448;2023-12-22T10:09:38;98077.53;;;3.07;72.57
29433;BME280;16405;53.964;13.448;2023-12-22T10:12:06;98096.50;;;3.09;72.25
29433;BME280;16405;53.964;13.448;2023-12-22T10:14:33;98087.09;;;3.06;71.78
29433;BME280;16405;53.964;13.448;2023-12-22T10:17:01;98089.59;;;3.08;72.68
29433;BME280;16405;53.964;13.448;2023-12-22T10:19:30;98105.13;;;3.10;72.37
29433;BME280;16405;53.964;13.448;2023-12-22T10:22:05;98105.97;;;3.10;72.36
29433;BME280;16405;53.964;13.448;2023-12-22T10:24:48;98071.25;;;3.11;71.61
29433;BME280;16405;53.964;13.448;2023-12-22T10:27:20;98093.78;;;3.11;71.84
29433;BME280;16405;53.964;13.448;2023-12-22T10:30:13;98110.31;;;3.10;72.07
29433;BME280;16405;53.964;13.448;2023-12-22T10:32:47;98114.44;;;3.14;71.90
29433;BME280;16405;53.964;13.448;2023-12-22T10:35:15;98112.72;;;3.13;71.75
29433;BME280;16405;53.964;13.448;2023-12-22T10:37:49;98138.59;;;3.16;71.63
29433;BME280;16405;53.964;13.448;2023-12-22T10:40:21;98149.13;;;3.13;71.18
29433;BME280;16405;53.964;13.448;2023-12-22T10:42:48;98156.78;;;3.16;70.67
29433;BME280;16405;53.964;13.448;2023-12-22T10:45:22;98147.38;;;3.13;70.25
29433;BME280;16405;53.964;13.448;2023-12-22T10:47:52;98158.53;;;3.15;70.08
29433;BME280;16405;53.964;13.448;2023-12-22T10:50:25;98172.53;;;3.13;70.53
29433;BME280;16405;53.964;13.448;2023-12-22T10:52:51;98166.59;;;3.11;69.07
29433;BME280;16405;53.964;13.448;2023-12-22T10:55:20;98178.00;;;3.08;69.26
29433;BME280;16405;53.964;13.448;2023-12-22T10:57:54;98180.78;;;3.05;69.02
29433;BME280;16405;53.964;13.448;2023-12-22T11:00:23;98159.81;;;3.08;69.25
29433;BME280;16405;53.964;13.448;2023-12-22T11:03:03;98174.38;;;3.11;68.75
29433;BME280;16405;53.964;13.448;2023-12-22T11:05:45;98130.28;;;3.09;67.42
29433;BME280;16405;53.964;13.448;2023-12-22T11:08:25;98197.03;;;3.08;67.49
29433;BME280;16405;53.964;13.448;2023-12-22T11:11:03;98155.53;;;3.07;68.41
29433;BME280;16405;53.964;13.448;2023-12-22T11:13:37;98217.84;;;3.08;68.46
29433;BME280;16405;53.964;13.448;2023-12-22T11:16:05;98203.19;;;3.07;67.86
29433;BME280;16405;53.964;13.448;2023-12-22T11:18:32;98214.97;;;3.13;67.38
29433;BME280;16405;53.964;13.448;2023-12-22T11:21:06;98224.88;;;3.06;67.69
29433;BME280;16405;53.964;13.448;2023-12-22T11:23:32;98192.28;;;3.01;67.35
29433;BME280;16405;53.964;13.448;2023-12-22T11:25:59;98173.41;;;2.97;67.41
29433;BME280;16405;53.964;13.448;2023-12-22T11:28:26;98212.81;;;3.05;66.59
29433;BME280;16405;53.964;13.448;2023-12-22T11:31:01;98230.34;;;3.02;65.85
29433;BME280;16405;53.964;13.448;2023-12-22T11:43:50;98248.63;;;2.84;65.16
29433;BME280;16405;53.964;13.448;2023-12-22T11:46:32;98261.69;;;2.83;64.82
29433;BME280;16405;53.964;13.448;2023-12-22T11:56:09;98261.63;;;2.69;65.34
29433;BME280;16405;53.964;13.448;2023-12-22T11:58:49;98262.22;;;2.74;66.37
29433;BME280;16405;53.964;13.448;2023-12-22T12:01:40;98273.03;;;2.82;67.20
29433;BME280;16405;53.964;13.448;2023-12-22T13:49:11;98313.06;;;2.29;70.38
29433;BME280;16405;53.964;13.448;2023-12-22T13:53:01;98331.41;;;2.25;70.78
29433;BME280;16405;53.964;13.448;2023-12-22T13:56:09;98344.38;;;2.25;71.41
29433;BME280;16405;53.964;13.448;2023-12-22T14:10:30;98351.09;;;2.30;70.46
29433;BME280;16405;53.964;13.448;2023-12-22T14:14:01;98346.81;;;2.29;70.01
29433;BME280;16405;53.964;13.448;2023-12-22T14:16:39;98350.19;;;2.31;69.68
29433;BME280;16405;53.964;13.448;2023-12-22T14:23:01;98375.25;;;2.32;68.34
29433;BME280;16405;53.964;13.448;2023-12-22T14:26:12;98354.59;;;2.29;69.00
29433;BME280;16405;53.964;13.448;2023-12-22T14:28:51;98379.69;;;2.30;68.84
29433;BME280;16405;53.964;13.448;2023-12-22T14:39:20;98392.88;;;2.42;67.90
29433;BME280;16405;53.964;13.448;2023-12-22T14:52:20;98420.63;;;2.42;67.15
29433;BME280;16405;53.964;13.448;2023-12-22T15:05:41;98420.47;;;2.45;67.18
29433;BME280;16405;53.964;13.448;2023-12-22T15:24:21;98434.69;;;2.38;69.41
29433;BME280;16405;53.964;13.448;2023-12-22T15:27:00;98439.41;;;2.30;68.78
29433;BME280;16405;53.964;13.448;2023-12-22T15:34:31;98468.03;;;2.28;66.63
29433;BME280;16405;53.964;13.448;2023-12-22T15:51:17;98444.00;;;1.88;74.28
29433;BME280;16405;53.964;13.448;2023-12-22T15:57:40;98412.13;;;1.67;74.89
29433;BME280;16405;53.964;13.448;2023-12-22T16:08:20;98443.03;;;1.53;75.81
29433;BME280;16405;53.964;13.448;2023-12-22T16:10:49;98431.28;;;1.46;75.92
29433;BME280;16405;53.964;13.448;2023-12-22T16:17:09;98440.81;;;1.45;74.24
29433;BME280;16405;53.964;13.448;2023-12-22T16:31:19;98450.44;;;1.43;73.07
29433;BME280;16405;53.964;13.448;2023-12-22T16:38:01;98487.13;;;1.34;72.71
29433;BME280;16405;53.964;13.448;2023-12-22T16:40:41;98464.84;;;1.49;71.50
29433;BME280;16405;53.964;13.448;2023-12-22T16:43:19;98482.53;;;1.40;71.91
29433;BME280;16405;53.964;13.448;2023-12-22T16:50:01;98462.19;;;1.31;72.79
29433;BME280;16405;53.964;13.448;2023-12-22T16:57:29;98456.22;;;1.29;71.44
29433;BME280;16405;53.964;13.448;2023-12-22T17:00:20;98478.25;;;1.39;70.28
29433;BME280;16405;53.964;13.448;2023-12-22T17:02:49;98480.59;;;1.25;70.56
29433;BME280;16405;53.964;13.448;2023-12-22T17:06:01;98481.88;;;1.35;69.70
29433;BME280;16405;53.964;13.448;2023-12-22T17:08:52;98502.00;;;1.30;69.80
29433;BME280;16405;53.964;13.448;2023-12-22T17:15:31;98482.06;;;1.12;70.26
29433;BME280;16405;53.964;13.448;2023-12-22T17:44:37;98517.34;;;0.95;71.05
29433;BME280;16405;53.964;13.448;2023-12-22T17:53:27;98522.00;;;0.87;71.32
29433;BME280;16405;53.964;13.448;2023-12-22T17:56:20;98531.19;;;0.94;71.34
29433;BME280;16405;53.964;13.448;2023-12-22T18:11:01;98537.41;;;0.90;70.26